Terminal Aerodrome Forecast
Issued by NWS Austin/San Antonio, TX

Home | Current Version | Previous Version | Text Only | Print | Product List | Glossary On
Versions: 1 2 3 4 5 6 7 8 9 10 11 12
000
FTUS44 KEWX 260500
TAFSAT
TAF
KSAT 260530Z 2606/2712 16012KT P6SM BKN035 BKN250
     FM260900 15007KT P6SM OVC015
     FM261200 17003KT 4SM BR OVC007
     FM261700 18012G17KT 5SM BR OVC015
     FM262100 18012KT P6SM BKN025
     FM270200 16009KT P6SM OVC015=

USA.gov is the U.S. government's official web portal to all federal, state and local government web resources and services.